sensor_id;sensor_type;location;lat;lon;timestamp;temperature;humidity
29453;DHT22;16424;50.956;5.320;2023-06-14T00:01:53;20.30;87.10
29453;DHT22;16424;50.956;5.320;2023-06-14T00:04:19;20.20;87.10
29453;DHT22;16424;50.956;5.320;2023-06-14T00:06:46;20.20;88.60
29453;DHT22;16424;50.956;5.320;2023-06-14T00:09:12;20.20;88.50
29453;DHT22;16424;50.956;5.320;2023-06-14T00:11:39;20.10;89.30
29453;DHT22;16424;50.956;5.320;2023-06-14T00:14:05;20.20;90.00
29453;DHT22;16424;50.956;5.320;2023-06-14T00:16:31;20.20;90.00
29453;DHT22;16424;50.956;5.320;2023-06-14T00:18:59;20.10;89.70
29453;DHT22;16424;50.956;5.320;2023-06-14T00:21:25;20.10;88.50
29453;DHT22;16424;50.956;5.320;2023-06-14T00:23:53;20.10;90.10
29453;DHT22;16424;50.956;5.320;2023-06-14T00:26:19;20.00;90.10
29453;DHT22;16424;50.956;5.320;2023-06-14T00:28:45;20.00;90.10
29453;DHT22;16424;50.956;5.320;2023-06-14T00:31:10;19.90;90.10
29453;DHT22;16424;50.956;5.320;2023-06-14T00:33:36;19.80;90.30
29453;DHT22;16424;50.956;5.320;2023-06-14T00:36:02;19.70;90.00
29453;DHT22;16424;50.956;5.320;2023-06-14T00:38:27;19.70;90.50
29453;DHT22;16424;50.956;5.320;2023-06-14T00:40:53;19.70;90.30
29453;DHT22;16424;50.956;5.320;2023-06-14T00:43:18;19.70;90.40
29453;DHT22;16424;50.956;5.320;2023-06-14T00:45:44;19.70;90.80
29453;DHT22;16424;50.956;5.320;2023-06-14T00:48:10;19.70;91.30
29453;DHT22;16424;50.956;5.320;2023-06-14T00:50:37;19.60;91.20
29453;DHT22;16424;50.956;5.320;2023-06-14T00:53:03;19.50;91.10
29453;DHT22;16424;50.956;5.320;2023-06-14T00:55:30;19.50;91.20
29453;DHT22;16424;50.956;5.320;2023-06-14T00:57:55;19.40;91.30
29453;DHT22;16424;50.956;5.320;2023-06-14T01:00:22;19.40;91.80
29453;DHT22;16424;50.956;5.320;2023-06-14T01:02:48;19.30;91.80
29453;DHT22;16424;50.956;5.320;2023-06-14T01:05:16;19.30;92.30
29453;DHT22;16424;50.956;5.320;2023-06-14T01:15:46;19.10;93.00
29453;DHT22;16424;50.956;5.320;2023-06-14T01:18:12;19.00;92.90
29453;DHT22;16424;50.956;5.320;2023-06-14T01:20:45;19.00;93.00
29453;DHT22;16424;50.956;5.320;2023-06-14T01:23:16;18.90;93.10
29453;DHT22;16424;50.956;5.320;2023-06-14T01:25:42;18.90;92.80
29453;DHT22;16424;50.956;5.320;2023-06-14T01:28:10;19.00;93.00
29453;DHT22;16424;50.956;5.320;2023-06-14T01:30:39;18.90;93.50
29453;DHT22;16424;50.956;5.320;2023-06-14T01:33:13;18.90;93.20
29453;DHT22;16424;50.956;5.320;2023-06-14T01:35:42;18.90;93.40
29453;DHT22;16424;50.956;5.320;2023-06-14T01:38:08;19.00;93.10
29453;DHT22;16424;50.956;5.320;2023-06-14T01:40:35;19.00;93.10
29453;DHT22;16424;50.956;5.320;2023-06-14T01:43:02;19.00;93.20
29453;DHT22;16424;50.956;5.320;2023-06-14T01:45:29;19.00;93.20
29453;DHT22;16424;50.956;5.320;2023-06-14T01:47:55;19.00;93.10
29453;DHT22;16424;50.956;5.320;2023-06-14T01:50:21;19.00;93.20
29453;DHT22;16424;50.956;5.320;2023-06-14T01:52:47;19.00;93.00
29453;DHT22;16424;50.956;5.320;2023-06-14T01:55:12;19.00;93.10
29453;DHT22;16424;50.956;5.320;2023-06-14T01:57:38;19.00;93.30
29453;DHT22;16424;50.956;5.320;2023-06-14T02:00:05;19.00;93.30
29453;DHT22;16424;50.956;5.320;2023-06-14T02:02:36;19.10;93.40
29453;DHT22;16424;50.956;5.320;2023-06-14T02:05:01;19.00;93.70
29453;DHT22;16424;50.956;5.320;2023-06-14T02:07:27;19.00;93.80
29453;DHT22;16424;50.956;5.320;2023-06-14T02:09:53;19.00;93.90
29453;DHT22;16424;50.956;5.320;2023-06-14T02:12:18;18.90;94.00
29453;DHT22;16424;50.956;5.320;2023-06-14T02:14:44;18.90;94.30
29453;DHT22;16424;50.956;5.320;2023-06-14T02:17:10;18.80;94.10
29453;DHT22;16424;50.956;5.320;2023-06-14T02:19:35;18.80;94.10
29453;DHT22;16424;50.956;5.320;2023-06-14T02:22:01;18.70;94.40
29453;DHT22;16424;50.956;5.320;2023-06-14T02:24:27;18.60;94.60
29453;DHT22;16424;50.956;5.320;2023-06-14T02:26:53;18.60;94.80
29453;DHT22;16424;50.956;5.320;2023-06-14T02:29:18;18.60;94.70
29453;DHT22;16424;50.956;5.320;2023-06-14T02:31:44;18.60;95.00
29453;DHT22;16424;50.956;5.320;2023-06-14T02:34:12;18.50;95.00
29453;DHT22;16424;50.956;5.320;2023-06-14T02:36:38;18.50;95.00
29453;DHT22;16424;50.956;5.320;2023-06-14T02:39:11;18.50;95.30
29453;DHT22;16424;50.956;5.320;2023-06-14T02:41:37;18.40;95.50
29453;DHT22;16424;50.956;5.320;2023-06-14T02:44:03;18.40;95.40
29453;DHT22;16424;50.956;5.320;2023-06-14T02:46:29;18.40;95.60
29453;DHT22;16424;50.956;5.320;2023-06-14T02:48:54;18.30;95.90
29453;DHT22;16424;50.956;5.320;2023-06-14T02:51:20;18.40;95.90
29453;DHT22;16424;50.956;5.320;2023-06-14T02:53:45;18.30;96.00
29453;DHT22;16424;50.956;5.320;2023-06-14T02:56:11;18.30;96.20
29453;DHT22;16424;50.956;5.320;2023-06-14T02:58:37;18.30;96.70
29453;DHT22;16424;50.956;5.320;2023-06-14T03:01:04;18.20;96.90
29453;DHT22;16424;50.956;5.320;2023-06-14T03:03:31;18.20;96.70
29453;DHT22;16424;50.956;5.320;2023-06-14T03:05:57;18.20;96.90
29453;DHT22;16424;50.956;5.320;2023-06-14T03:08:23;18.20;96.90
29453;DHT22;16424;50.956;5.320;2023-06-14T03:10:52;18.20;97.10
29453;DHT22;16424;50.956;5.320;2023-06-14T03:13:18;18.20;97.10
29453;DHT22;16424;50.956;5.320;2023-06-14T03:15:47;18.20;97.40
29453;DHT22;16424;50.956;5.320;2023-06-14T03:18:16;18.20;97.40
29453;DHT22;16424;50.956;5.320;2023-06-14T03:20:42;18.20;97.60
29453;DHT22;16424;50.956;5.320;2023-06-14T03:23:08;18.30;97.60
29453;DHT22;16424;50.956;5.320;2023-06-14T03:25:34;18.20;97.80
29453;DHT22;16424;50.956;5.320;2023-06-14T03:28:01;18.30;98.00
29453;DHT22;16424;50.956;5.320;2023-06-14T03:30:29;18.20;98.30
29453;DHT22;16424;50.956;5.320;2023-06-14T03:32:55;18.20;98.50
29453;DHT22;16424;50.956;5.320;2023-06-14T03:35:21;18.10;98.40
29453;DHT22;16424;50.956;5.320;2023-06-14T03:37:47;18.20;98.20
29453;DHT22;16424;50.956;5.320;2023-06-14T03:40:14;18.10;98.60
29453;DHT22;16424;50.956;5.320;2023-06-14T03:42:40;18.20;98.30
29453;DHT22;16424;50.956;5.320;2023-06-14T03:45:07;18.10;98.70
29453;DHT22;16424;50.956;5.320;2023-06-14T03:47:33;18.10;98.70
29453;DHT22;16424;50.956;5.320;2023-06-14T03:49:59;18.10;98.90
29453;DHT22;16424;50.956;5.320;2023-06-14T03:52:25;18.10;98.90
29453;DHT22;16424;50.956;5.320;2023-06-14T03:54:51;18.20;99.00
29453;DHT22;16424;50.956;5.320;2023-06-14T03:57:17;18.10;99.20
29453;DHT22;16424;50.956;5.320;2023-06-14T03:59:43;18.00;99.30
29453;DHT22;16424;50.956;5.320;2023-06-14T04:02:09;18.10;99.30
29453;DHT22;16424;50.956;5.320;2023-06-14T04:04:35;18.00;99.50
29453;DHT22;16424;50.956;5.320;2023-06-14T04:07:01;18.10;99.80
29453;DHT22;16424;50.956;5.320;2023-06-14T04:09:29;18.10;99.20
29453;DHT22;16424;50.956;5.320;2023-06-14T04:11:55;18.10;99.20
29453;DHT22;16424;50.956;5.320;2023-06-14T04:14:21;18.00;99.80
29453;DHT22;16424;50.956;5.320;2023-06-14T04:16:48;18.10;99.90
29453;DHT22;16424;50.956;5.320;2023-06-14T04:19:17;18.20;99.80
29453;DHT22;16424;50.956;5.320;2023-06-14T04:21:43;18.10;99.80
29453;DHT22;16424;50.956;5.320;2023-06-14T04:24:08;18.20;99.90
29453;DHT22;16424;50.956;5.320;2023-06-14T04:26:42;18.20;99.80
29453;DHT22;16424;50.956;5.320;2023-06-14T04:29:10;18.20;99.90
29453;DHT22;16424;50.956;5.320;2023-06-14T04:31:42;18.30;99.90
29453;DHT22;16424;50.956;5.320;2023-06-14T04:34:10;18.40;99.90
29453;DHT22;16424;50.956;5.320;2023-06-14T04:36:42;18.30;99.90
29453;DHT22;16424;50.956;5.320;2023-06-14T04:39:18;18.30;99.90
29453;DHT22;16424;50.956;5.320;2023-06-14T04:41:44;18.40;99.90
29453;DHT22;16424;50.956;5.320;2023-06-14T04:44:10;18.50;99.90
29453;DHT22;16424;50.956;5.320;2023-06-14T04:46:36;18.50;99.90
29453;DHT22;16424;50.956;5.320;2023-06-14T04:49:17;18.60;99.90
29453;DHT22;16424;50.956;5.320;2023-06-14T04:51:44;18.60;99.90
29453;DHT22;16424;50.956;5.320;2023-06-14T04:54:11;18.60;99.90
29453;DHT22;16424;50.956;5.320;2023-06-14T04:56:43;18.70;99.90
29453;DHT22;16424;50.956;5.320;2023-06-14T04:59:10;18.80;99.90
29453;DHT22;16424;50.956;5.320;2023-06-14T05:01:41;18.90;99.90
29453;DHT22;16424;50.956;5.320;2023-06-14T05:04:06;18.90;99.80
29453;DHT22;16424;50.956;5.320;2023-06-14T05:06:32;19.00;99.90
29453;DHT22;16424;50.956;5.320;2023-06-14T05:08:58;19.10;99.90
29453;DHT22;16424;50.956;5.320;2023-06-14T05:11:24;19.20;99.90
29453;DHT22;16424;50.956;5.320;2023-06-14T05:13:50;19.30;99.30
29453;DHT22;16424;50.956;5.320;2023-06-14T05:16:16;19.50;99.50
29453;DHT22;16424;50.956;5.320;2023-06-14T05:18:45;19.40;98.90
29453;DHT22;16424;50.956;5.320;2023-06-14T05:21:12;19.50;98.60
29453;DHT22;16424;50.956;5.320;2023-06-14T05:23:38;19.60;98.10
29453;DHT22;16424;50.956;5.320;2023-06-14T05:26:04;19.70;97.60
29453;DHT22;16424;50.956;5.320;2023-06-14T05:28:30;19.70;97.80
29453;DHT22;16424;50.956;5.320;2023-06-14T05:30:56;19.70;98.30
29453;DHT22;16424;50.956;5.320;2023-06-14T05:33:22;19.80;98.00
29453;DHT22;16424;50.956;5.320;2023-06-14T05:35:48;19.80;97.60
29453;DHT22;16424;50.956;5.320;2023-06-14T05:38:13;20.00;97.40
29453;DHT22;16424;50.956;5.320;2023-06-14T05:40:39;20.30;97.10
29453;DHT22;16424;50.956;5.320;2023-06-14T05:43:05;21.10;95.70
29453;DHT22;16424;50.956;5.320;2023-06-14T05:45:31;22.00;94.20
29453;DHT22;16424;50.956;5.320;2023-06-14T05:47:56;22.80;92.20
29453;DHT22;16424;50.956;5.320;2023-06-14T05:50:41;23.40;90.20
29453;DHT22;16424;50.956;5.320;2023-06-14T05:56:29;24.20;87.10
29453;DHT22;16424;50.956;5.320;2023-06-14T05:58:55;24.20;85.60
29453;DHT22;16424;50.956;5.320;2023-06-14T06:01:22;24.30;86.10
29453;DHT22;16424;50.956;5.320;2023-06-14T06:03:53;25.10;85.90
29453;DHT22;16424;50.956;5.320;2023-06-14T06:06:20;26.00;83.20
29453;DHT22;16424;50.956;5.320;2023-06-14T06:08:46;26.80;79.60
29453;DHT22;16424;50.956;5.320;2023-06-14T06:11:16;27.00;78.80
29453;DHT22;16424;50.956;5.320;2023-06-14T06:13:42;27.50;79.50
29453;DHT22;16424;50.956;5.320;2023-06-14T06:16:09;28.30;77.50
29453;DHT22;16424;50.956;5.320;2023-06-14T06:18:34;28.50;75.50
29453;DHT22;16424;50.956;5.320;2023-06-14T06:21:01;28.40;74.50
29453;DHT22;16424;50.956;5.320;2023-06-14T06:23:28;28.40;74.70
29453;DHT22;16424;50.956;5.320;2023-06-14T06:25:56;28.50;74.10
29453;DHT22;16424;50.956;5.320;2023-06-14T06:28:23;28.50;73.90
29453;DHT22;16424;50.956;5.320;2023-06-14T06:30:49;28.10;74.60
29453;DHT22;16424;50.956;5.320;2023-06-14T06:33:16;27.90;74.90
29453;DHT22;16424;50.956;5.320;2023-06-14T06:35:42;27.80;75.20
29453;DHT22;16424;50.956;5.320;2023-06-14T06:38:08;27.60;76.00
29453;DHT22;16424;50.956;5.320;2023-06-14T06:40:35;26.80;76.90
29453;DHT22;16424;50.956;5.320;2023-06-14T06:43:02;26.70;78.50
29453;DHT22;16424;50.956;5.320;2023-06-14T06:45:28;27.50;79.10
29453;DHT22;16424;50.956;5.320;2023-06-14T06:47:54;28.30;75.20
29453;DHT22;16424;50.956;5.320;2023-06-14T06:50:21;28.50;75.10
29453;DHT22;16424;50.956;5.320;2023-06-14T06:52:49;28.10;75.00
29453;DHT22;16424;50.956;5.320;2023-06-14T06:55:15;27.80;75.60
29453;DHT22;16424;50.956;5.320;2023-06-14T06:57:41;27.80;75.00
29453;DHT22;16424;50.956;5.320;2023-06-14T07:00:07;28.40;73.90
29453;DHT22;16424;50.956;5.320;2023-06-14T07:02:35;29.00;73.60
29453;DHT22;16424;50.956;5.320;2023-06-14T07:05:02;29.20;70.70
29453;DHT22;16424;50.956;5.320;2023-06-14T07:07:28;29.10;70.70
29453;DHT22;16424;50.956;5.320;2023-06-14T07:09:54;29.00;70.30
29453;DHT22;16424;50.956;5.320;2023-06-14T07:12:20;29.10;70.30
29453;DHT22;16424;50.956;5.320;2023-06-14T07:14:46;29.20;69.10
29453;DHT22;16424;50.956;5.320;2023-06-14T07:17:12;29.40;69.70
29453;DHT22;16424;50.956;5.320;2023-06-14T07:19:38;29.50;69.20
29453;DHT22;16424;50.956;5.320;2023-06-14T07:22:06;29.20;69.70
29453;DHT22;16424;50.956;5.320;2023-06-14T07:24:32;29.50;68.60
29453;DHT22;16424;50.956;5.320;2023-06-14T07:26:59;30.20;67.20
29453;DHT22;16424;50.956;5.320;2023-06-14T07:29:24;30.00;66.20
29453;DHT22;16424;50.956;5.320;2023-06-14T07:31:53;30.00;66.10
29453;DHT22;16424;50.956;5.320;2023-06-14T07:34:19;29.90;66.30
29453;DHT22;16424;50.956;5.320;2023-06-14T07:36:45;30.20;66.40
29453;DHT22;16424;50.956;5.320;2023-06-14T07:39:12;30.00;66.60
29453;DHT22;16424;50.956;5.320;2023-06-14T07:41:39;30.60;65.80
29453;DHT22;16424;50.956;5.320;2023-06-14T07:44:05;29.80;65.40
29453;DHT22;16424;50.956;5.320;2023-06-14T07:46:31;29.40;66.80
29453;DHT22;16424;50.956;5.320;2023-06-14T07:48:57;29.30;66.60
29453;DHT22;16424;50.956;5.320;2023-06-14T07:51:23;29.30;66.30
29453;DHT22;16424;50.956;5.320;2023-06-14T07:53:49;29.90;65.70
29453;DHT22;16424;50.956;5.320;2023-06-14T07:56:15;30.50;65.10
29453;DHT22;16424;50.956;5.320;2023-06-14T07:58:42;30.00;64.60
29453;DHT22;16424;50.956;5.320;2023-06-14T08:01:08;28.80;64.90
29453;DHT22;16424;50.956;5.320;2023-06-14T08:03:36;29.10;66.50
29453;DHT22;16424;50.956;5.320;2023-06-14T08:06:02;29.70;65.50
29453;DHT22;16424;50.956;5.320;2023-06-14T08:08:28;29.90;65.10
29453;DHT22;16424;50.956;5.320;2023-06-14T08:10:54;31.00;64.30
29453;DHT22;16424;50.956;5.320;2023-06-14T08:13:20;30.50;63.80
29453;DHT22;16424;50.956;5.320;2023-06-14T08:15:46;29.70;65.10
29453;DHT22;16424;50.956;5.320;2023-06-14T08:18:12;29.60;65.50
29453;DHT22;16424;50.956;5.320;2023-06-14T08:20:38;30.30;66.00
29453;DHT22;16424;50.956;5.320;2023-06-14T08:23:05;30.60;64.70
29453;DHT22;16424;50.956;5.320;2023-06-14T08:25:31;30.50;63.80
29453;DHT22;16424;50.956;5.320;2023-06-14T08:27:58;30.30;64.30
29453;DHT22;16424;50.956;5.320;2023-06-14T08:30:24;30.10;65.00
29453;DHT22;16424;50.956;5.320;2023-06-14T08:32:51;29.90;64.30
29453;DHT22;16424;50.956;5.320;2023-06-14T08:35:17;30.20;63.90
29453;DHT22;16424;50.956;5.320;2023-06-14T08:37:44;30.10;64.10
29453;DHT22;16424;50.956;5.320;2023-06-14T08:40:22;30.20;64.20
29453;DHT22;16424;50.956;5.320;2023-06-14T08:42:54;30.10;63.50
29453;DHT22;16424;50.956;5.320;2023-06-14T08:45:21;29.50;63.90
29453;DHT22;16424;50.956;5.320;2023-06-14T08:47:48;29.10;65.00
29453;DHT22;16424;50.956;5.320;2023-06-14T08:50:27;29.20;64.90
29453;DHT22;16424;50.956;5.320;2023-06-14T08:52:58;29.10;65.60
29453;DHT22;16424;50.956;5.320;2023-06-14T08:55:29;29.20;65.40
29453;DHT22;16424;50.956;5.320;2023-06-14T08:57:57;29.70;65.70
29453;DHT22;16424;50.956;5.320;2023-06-14T09:00:25;30.20;65.30
29453;DHT22;16424;50.956;5.320;2023-06-14T09:02:52;30.00;63.50
29453;DHT22;16424;50.956;5.320;2023-06-14T09:05:26;29.50;62.30
29453;DHT22;16424;50.956;5.320;2023-06-14T09:07:55;28.80;62.20
29453;DHT22;16424;50.956;5.320;2023-06-14T09:10:22;28.70;63.20
29453;DHT22;16424;50.956;5.320;2023-06-14T09:12:53;29.10;61.90
29453;DHT22;16424;50.956;5.320;2023-06-14T09:15:19;29.40;62.60
29453;DHT22;16424;50.956;5.320;2023-06-14T09:17:46;29.40;61.30
29453;DHT22;16424;50.956;5.320;2023-06-14T09:20:12;29.10;62.00
29453;DHT22;16424;50.956;5.320;2023-06-14T09:22:45;28.90;61.90
29453;DHT22;16424;50.956;5.320;2023-06-14T09:25:11;28.90;63.00
29453;DHT22;16424;50.956;5.320;2023-06-14T09:27:59;28.20;63.20
29453;DHT22;16424;50.956;5.320;2023-06-14T09:33:28;27.50;64.60
29453;DHT22;16424;50.956;5.320;2023-06-14T09:35:56;27.30;65.40
29453;DHT22;16424;50.956;5.320;2023-06-14T09:38:22;27.20;65.00
29453;DHT22;16424;50.956;5.320;2023-06-14T09:41:11;27.20;65.60
29453;DHT22;16424;50.956;5.320;2023-06-14T09:43:38;26.60;64.80
29453;DHT22;16424;50.956;5.320;2023-06-14T09:46:05;26.40;64.80
29453;DHT22;16424;50.956;5.320;2023-06-14T09:48:31;26.40;65.60
29453;DHT22;16424;50.956;5.320;2023-06-14T09:50:59;26.70;64.80
29453;DHT22;16424;50.956;5.320;2023-06-14T09:53:29;26.70;63.40
29453;DHT22;16424;50.956;5.320;2023-06-14T09:55:56;26.50;65.10
29453;DHT22;16424;50.956;5.320;2023-06-14T09:58:26;26.70;65.10
29453;DHT22;16424;50.956;5.320;2023-06-14T10:00:54;26.70;64.50
29453;DHT22;16424;50.956;5.320;2023-06-14T10:03:27;26.60;65.10
29453;DHT22;16424;50.956;5.320;2023-06-14T10:05:55;26.50;64.70
29453;DHT22;16424;50.956;5.320;2023-06-14T10:08:28;26.30;65.40
29453;DHT22;16424;50.956;5.320;2023-06-14T10:10:58;26.20;64.90
29453;DHT22;16424;50.956;5.320;2023-06-14T10:13:26;26.40;66.40
29453;DHT22;16424;50.956;5.320;2023-06-14T10:18:35;26.20;64.80
29453;DHT22;16424;50.956;5.320;2023-06-14T10:21:51;26.10;64.30
29453;DHT22;16424;50.956;5.320;2023-06-14T10:24:03;26.10;66.00
29453;DHT22;16424;50.956;5.320;2023-06-14T10:26:30;26.10;64.80
29453;DHT22;16424;50.956;5.320;2023-06-14T10:29:01;26.10;65.70
29453;DHT22;16424;50.956;5.320;2023-06-14T10:31:46;26.10;64.60
29453;DHT22;16424;50.956;5.320;2023-06-14T10:34:24;26.30;64.50
29453;DHT22;16424;50.956;5.320;2023-06-14T10:37:10;26.40;65.30
29453;DHT22;16424;50.956;5.320;2023-06-14T10:39:44;26.30;64.90
29453;DHT22;16424;50.956;5.320;2023-06-14T10:42:14;26.10;64.40
29453;DHT22;16424;50.956;5.320;2023-06-14T10:47:10;26.50;66.00
29453;DHT22;16424;50.956;5.320;2023-06-14T10:49:44;26.50;65.70
29453;DHT22;16424;50.956;5.320;2023-06-14T10:52:20;26.40;65.30
29453;DHT22;16424;50.956;5.320;2023-06-14T10:57:31;26.60;62.60
29453;DHT22;16424;50.956;5.320;2023-06-14T10:59:58;26.60;64.20
29453;DHT22;16424;50.956;5.320;2023-06-14T11:05:27;26.70;60.30
29453;DHT22;16424;50.956;5.320;2023-06-14T11:10:58;26.80;60.60
29453;DHT22;16424;50.956;5.320;2023-06-14T11:13:26;26.80;61.00
29453;DHT22;16424;50.956;5.320;2023-06-14T11:15:52;26.70;61.20
29453;DHT22;16424;50.956;5.320;2023-06-14T11:18:23;26.80;60.00
29453;DHT22;16424;50.956;5.320;2023-06-14T11:20:55;26.60;59.10
29453;DHT22;16424;50.956;5.320;2023-06-14T11:23:40;26.60;59.10
29453;DHT22;16424;50.956;5.320;2023-06-14T11:26:05;26.60;59.00
29453;DHT22;16424;50.956;5.320;2023-06-14T11:28:40;26.80;58.30
29453;DHT22;16424;50.956;5.320;2023-06-14T11:31:09;26.80;59.70
29453;DHT22;16424;50.956;5.320;2023-06-14T11:33:35;26.80;57.60
29453;DHT22;16424;50.956;5.320;2023-06-14T11:36:05;26.80;58.10
29453;DHT22;16424;50.956;5.320;2023-06-14T11:38:36;26.90;57.70
29453;DHT22;16424;50.956;5.320;2023-06-14T11:41:02;26.80;57.20
29453;DHT22;16424;50.956;5.320;2023-06-14T11:43:48;26.70;57.10
29453;DHT22;16424;50.956;5.320;2023-06-14T11:46:25;27.00;57.10
29453;DHT22;16424;50.956;5.320;2023-06-14T11:48:55;27.00;57.20
29453;DHT22;16424;50.956;5.320;2023-06-14T11:51:51;27.20;58.90
29453;DHT22;16424;50.956;5.320;2023-06-14T11:54:52;26.80;58.10
29453;DHT22;16424;50.956;5.320;2023-06-14T11:57:25;26.60;58.90
29453;DHT22;16424;50.956;5.320;2023-06-14T11:59:51;26.60;58.90
29453;DHT22;16424;50.956;5.320;2023-06-14T12:02:19;26.70;59.00
29453;DHT22;16424;50.956;5.320;2023-06-14T12:04:48;26.60;57.90
29453;DHT22;16424;50.956;5.320;2023-06-14T12:07:15;26.60;57.90
29453;DHT22;16424;50.956;5.320;2023-06-14T12:10:04;26.80;57.90
29453;DHT22;16424;50.956;5.320;2023-06-14T12:12:36;27.20;58.40
29453;DHT22;16424;50.956;5.320;2023-06-14T12:15:07;27.10;58.70
29453;DHT22;16424;50.956;5.320;2023-06-14T12:17:35;27.00;58.50
29453;DHT22;16424;50.956;5.320;2023-06-14T12:23:06;26.90;58.10
29453;DHT22;16424;50.956;5.320;2023-06-14T12:25:35;27.10;58.20
29453;DHT22;16424;50.956;5.320;2023-06-14T12:28:09;27.20;58.40
29453;DHT22;16424;50.956;5.320;2023-06-14T12:30:36;27.40;59.00
29453;DHT22;16424;50.956;5.320;2023-06-14T12:33:03;27.50;59.00
29453;DHT22;16424;50.956;5.320;2023-06-14T12:35:29;27.30;59.40
29453;DHT22;16424;50.956;5.320;2023-06-14T12:37:56;27.40;59.20
29453;DHT22;16424;50.956;5.320;2023-06-14T12:40:22;27.50;58.90
29453;DHT22;16424;50.956;5.320;2023-06-14T12:43:08;27.40;58.60
29453;DHT22;16424;50.956;5.320;2023-06-14T12:45:33;27.40;60.10
29453;DHT22;16424;50.956;5.320;2023-06-14T12:47:59;27.40;59.70
29453;DHT22;16424;50.956;5.320;2023-06-14T12:50:25;27.30;59.50
29453;DHT22;16424;50.956;5.320;2023-06-14T12:52:51;27.20;60.20
29453;DHT22;16424;50.956;5.320;2023-06-14T12:55:17;27.10;59.70
29453;DHT22;16424;50.956;5.320;2023-06-14T12:57:44;27.10;60.30
29453;DHT22;16424;50.956;5.320;2023-06-14T13:00:10;27.40;59.90
29453;DHT22;16424;50.956;5.320;2023-06-14T13:02:38;27.50;60.90
29453;DHT22;16424;50.956;5.320;2023-06-14T13:05:04;27.40;59.60
29453;DHT22;16424;50.956;5.320;2023-06-14T13:07:31;27.10;60.10
29453;DHT22;16424;50.956;5.320;2023-06-14T13:09:56;26.90;61.10
29453;DHT22;16424;50.956;5.320;2023-06-14T13:12:24;26.80;60.80
29453;DHT22;16424;50.956;5.320;2023-06-14T13:14:49;26.50;61.30
29453;DHT22;16424;50.956;5.320;2023-06-14T13:17:16;26.60;62.80
29453;DHT22;16424;50.956;5.320;2023-06-14T13:19:41;26.90;60.70
29453;DHT22;16424;50.956;5.320;2023-06-14T13:22:08;27.10;60.90
29453;DHT22;16424;50.956;5.320;2023-06-14T13:24:34;27.10;59.40
29453;DHT22;16424;50.956;5.320;2023-06-14T13:27:00;27.20;59.30
29453;DHT22;16424;50.956;5.320;2023-06-14T13:29:26;27.30;60.00
29453;DHT22;16424;50.956;5.320;2023-06-14T13:31:53;27.40;61.00
29453;DHT22;16424;50.956;5.320;2023-06-14T13:34:19;27.50;61.10
29453;DHT22;16424;50.956;5.320;2023-06-14T13:36:45;27.40;59.40
29453;DHT22;16424;50.956;5.320;2023-06-14T13:39:11;27.50;60.50
29453;DHT22;16424;50.956;5.320;2023-06-14T13:41:37;27.60;60.90
29453;DHT22;16424;50.956;5.320;2023-06-14T13:44:03;27.40;59.60
29453;DHT22;16424;50.956;5.320;2023-06-14T13:46:30;27.30;60.00
29453;DHT22;16424;50.956;5.320;2023-06-14T13:48:57;27.40;60.20
29453;DHT22;16424;50.956;5.320;2023-06-14T13:51:27;27.30;59.50
29453;DHT22;16424;50.956;5.320;2023-06-14T13:53:53;27.30;59.30
29453;DHT22;16424;50.956;5.320;2023-06-14T13:56:22;27.30;59.60
29453;DHT22;16424;50.956;5.320;2023-06-14T13:58:49;27.20;59.60
29453;DHT22;16424;50.956;5.320;2023-06-14T14:01:15;27.30;60.10
29453;DHT22;16424;50.956;5.320;2023-06-14T14:03:43;27.10;58.70
29453;DHT22;16424;50.956;5.320;2023-06-14T14:06:10;27.00;59.20
29453;DHT22;16424;50.956;5.320;2023-06-14T14:08:36;27.00;59.60
29453;DHT22;16424;50.956;5.320;2023-06-14T14:11:21;27.20;59.80
29453;DHT22;16424;50.956;5.320;2023-06-14T14:13:46;27.30;59.90
29453;DHT22;16424;50.956;5.320;2023-06-14T14:16:13;27.30;59.80
29453;DHT22;16424;50.956;5.320;2023-06-14T14:18:39;27.30;59.40
29453;DHT22;16424;50.956;5.320;2023-06-14T14:21:04;27.20;59.30
29453;DHT22;16424;50.956;5.320;2023-06-14T14:23:30;27.30;59.90
29453;DHT22;16424;50.956;5.320;2023-06-14T14:25:57;27.40;60.50
29453;DHT22;16424;50.956;5.320;2023-06-14T14:28:23;27.60;60.10
29453;DHT22;16424;50.956;5.320;2023-06-14T14:30:49;27.60;59.50
29453;DHT22;16424;50.956;5.320;2023-06-14T14:33:36;27.60;60.20
29453;DHT22;16424;50.956;5.320;2023-06-14T14:36:01;27.80;59.60
29453;DHT22;16424;50.956;5.320;2023-06-14T14:38:29;27.90;59.60
29453;DHT22;16424;50.956;5.320;2023-06-14T14:40:55;27.70;59.50
29453;DHT22;16424;50.956;5.320;2023-06-14T14:43:21;27.60;59.30
29453;DHT22;16424;50.956;5.320;2023-06-14T14:48:50;27.60;58.60
29453;DHT22;16424;50.956;5.320;2023-06-14T14:51:16;27.60;60.30
29453;DHT22;16424;50.956;5.320;2023-06-14T14:53:43;27.60;60.60
29453;DHT22;16424;50.956;5.320;2023-06-14T14:56:08;27.50;61.50
29453;DHT22;16424;50.956;5.320;2023-06-14T14:58:36;27.50;61.30
29453;DHT22;16424;50.956;5.320;2023-06-14T15:01:03;27.50;62.10
29453;DHT22;16424;50.956;5.320;2023-06-14T15:03:31;27.40;59.50
29453;DHT22;16424;50.956;5.320;2023-06-14T15:05:56;27.40;59.50
29453;DHT22;16424;50.956;5.320;2023-06-14T15:08:22;27.50;61.30
29453;DHT22;16424;50.956;5.320;2023-06-14T15:10:50;27.50;60.50
29453;DHT22;16424;50.956;5.320;2023-06-14T15:13:16;27.30;60.50
29453;DHT22;16424;50.956;5.320;2023-06-14T15:16:00;27.20;61.10
29453;DHT22;16424;50.956;5.320;2023-06-14T15:18:26;27.20;61.70
29453;DHT22;16424;50.956;5.320;2023-06-14T15:20:51;27.30;62.60
29453;DHT22;16424;50.956;5.320;2023-06-14T15:23:19;27.30;59.80
29453;DHT22;16424;50.956;5.320;2023-06-14T15:25:46;27.30;60.70
29453;DHT22;16424;50.956;5.320;2023-06-14T15:28:34;27.30;61.10
29453;DHT22;16424;50.956;5.320;2023-06-14T15:31:00;27.30;61.20
29453;DHT22;16424;50.956;5.320;2023-06-14T15:33:26;26.90;59.20
29453;DHT22;16424;50.956;5.320;2023-06-14T15:35:51;26.60;59.20
29453;DHT22;16424;50.956;5.320;2023-06-14T15:38:20;26.60;58.70
29453;DHT22;16424;50.956;5.320;2023-06-14T15:40:47;26.70;59.40
29453;DHT22;16424;50.956;5.320;2023-06-14T15:43:13;26.80;58.90
29453;DHT22;16424;50.956;5.320;2023-06-14T15:45:39;27.00;59.00
29453;DHT22;16424;50.956;5.320;2023-06-14T15:48:05;27.10;59.30
29453;DHT22;16424;50.956;5.320;2023-06-14T15:50:31;27.20;59.10
29453;DHT22;16424;50.956;5.320;2023-06-14T15:52:57;27.10;59.60
29453;DHT22;16424;50.956;5.320;2023-06-14T15:55:23;27.00;60.10
29453;DHT22;16424;50.956;5.320;2023-06-14T15:57:49;26.70;59.50
29453;DHT22;16424;50.956;5.320;2023-06-14T16:00:15;26.40;60.50
29453;DHT22;16424;50.956;5.320;2023-06-14T16:02:41;26.40;61.60
29453;DHT22;16424;50.956;5.320;2023-06-14T16:05:07;26.60;62.30
29453;DHT22;16424;50.956;5.320;2023-06-14T16:07:33;26.50;61.30
29453;DHT22;16424;50.956;5.320;2023-06-14T16:09:59;26.60;61.40